Time;durP1;ratioP1;P1;durP2;ratioP2;P2;SDS_P1;SDS_P2;PMS_P1;PMS_P2;Temp;Humidity;BMP_temperature;BMP_pressure;BME280_temperature;BME280_humidity;BME280_pressure;Samples;Min_cycle;Max_cycle;Signal;HPM_P1;HPM_P2
2023/09/15 00:01:00;;;;;;;11.90;6.37;;;10.10;99.90;;;;;;5005672;28;20432;-48
2023/09/15 00:03:27;;;;;;;12.40;6.03;;;10.10;99.90;;;;;;5003571;28;20590;-47
2023/09/15 00:05:52;;;;;;;14.63;6.17;;;10.10;99.90;;;;;;5005435;28;20191;-49
2023/09/15 00:08:18;;;;;;;8.50;5.77;;;10.10;99.90;;;;;;5003861;28;20458;-48
2023/09/15 00:10:46;;;;;;;7.20;5.07;;;10.10;99.90;;;;;;5011631;28;20183;-49
2023/09/15 00:13:11;;;;;;;10.10;6.17;;;10.10;99.90;;;;;;5013403;28;20207;-48
2023/09/15 00:15:37;;;;;;;8.27;6.20;;;10.10;99.90;;;;;;5002245;28;20495;-49
2023/09/15 00:18:03;;;;;;;9.53;5.80;;;10.00;99.90;;;;;;5020633;28;20698;-48
2023/09/15 00:20:28;;;;;;;8.27;5.30;;;10.00;99.90;;;;;;5012312;28;20248;-47
2023/09/15 00:22:55;;;;;;;8.50;5.50;;;10.00;99.90;;;;;;5012656;28;20235;-48
2023/09/15 00:25:26;;;;;;;9.97;6.33;;;9.90;99.90;;;;;;4996337;28;20209;-48
2023/09/15 00:27:54;;;;;;;9.53;6.00;;;9.90;99.90;;;;;;5011093;28;20931;-48
2023/09/15 00:30:22;;;;;;;8.47;6.00;;;9.90;99.90;;;;;;5015313;28;20808;-47
2023/09/15 00:32:48;;;;;;;8.93;6.20;;;9.90;99.90;;;;;;5016116;28;20445;-48
2023/09/15 00:35:23;;;;;;;12.30;5.70;;;9.80;99.90;;;;;;5016740;28;20430;-48
2023/09/15 00:37:50;;;;;;;9.60;5.70;;;9.80;99.90;;;;;;5015407;28;20445;-49
2023/09/15 00:40:17;;;;;;;6.80;5.30;;;9.80;99.90;;;;;;5002653;28;20949;-48
2023/09/15 00:42:44;;;;;;;11.50;5.73;;;9.80;99.90;;;;;;5000379;28;20451;-48
2023/09/15 00:45:14;;;;;;;10.93;5.60;;;9.70;99.90;;;;;;5004370;28;20489;-47
2023/09/15 00:47:43;;;;;;;8.10;5.80;;;9.70;99.90;;;;;;4998231;28;20475;-47
2023/09/15 00:50:14;;;;;;;8.10;5.77;;;9.70;99.90;;;;;;5004776;28;20445;-48
2023/09/15 00:52:43;;;;;;;8.97;5.30;;;9.70;99.90;;;;;;5002706;28;20464;-48
2023/09/15 00:55:10;;;;;;;6.30;4.90;;;9.60;99.90;;;;;;4999186;28;20930;-48
2023/09/15 00:57:39;;;;;;;7.40;5.03;;;9.60;99.90;;;;;;5001054;28;20889;-48
2023/09/15 01:00:13;;;;;;;8.00;5.30;;;9.60;99.90;;;;;;5003074;28;20545;-48
2023/09/15 01:02:42;;;;;;;9.70;5.43;;;9.60;99.90;;;;;;5008920;28;21024;-49
2023/09/15 01:05:10;;;;;;;9.30;5.00;;;9.50;99.90;;;;;;5001482;28;20489;-48
2023/09/15 01:07:37;;;;;;;7.93;5.90;;;9.50;99.90;;;;;;4999365;28;20442;-49
2023/09/15 01:10:07;;;;;;;5.93;4.93;;;9.40;99.90;;;;;;5000953;28;20441;-48
2023/09/15 01:12:33;;;;;;;6.93;4.60;;;9.50;99.90;;;;;;4999800;28;20438;-48
2023/09/15 01:15:01;;;;;;;6.80;4.80;;;9.40;99.90;;;;;;5001913;28;20854;-47
2023/09/15 01:17:42;;;;;;;7.60;4.50;;;9.40;99.90;;;;;;4999419;28;20878;-48
2023/09/15 01:20:20;;;;;;;8.27;4.60;;;9.50;99.90;;;;;;5000092;28;20804;-48
2023/09/15 01:23:07;;;;;;;7.03;4.77;;;9.50;99.90;;;;;;4998762;28;20488;-48
2023/09/15 01:26:02;;;;;;;5.37;4.30;;;9.50;99.90;;;;;;5002632;28;20452;-48
2023/09/15 01:29:00;;;;;;;7.27;4.67;;;9.40;99.90;;;;;;5005693;28;20460;-48
2023/09/15 01:31:26;;;;;;;6.60;5.03;;;9.50;99.90;;;;;;5005987;28;20489;-48
2023/09/15 01:33:52;;;;;;;7.37;4.37;;;9.40;99.90;;;;;;4998414;28;20518;-50
2023/09/15 01:36:18;;;;;;;12.77;4.77;;;9.40;99.90;;;;;;5001262;28;20299;-48
2023/09/15 01:38:43;;;;;;;9.10;4.80;;;9.40;99.90;;;;;;4998267;28;20206;-47
2023/09/15 01:41:09;;;;;;;7.90;4.80;;;9.40;99.90;;;;;;5005173;28;20670;-47
2023/09/15 01:43:34;;;;;;;5.70;4.70;;;9.40;99.90;;;;;;5005905;28;20543;-47
2023/09/15 01:46:00;;;;;;;11.50;4.53;;;9.40;99.90;;;;;;5002594;28;20194;-48
2023/09/15 01:48:26;;;;;;;5.93;4.50;;;9.40;99.90;;;;;;4997919;28;20188;-48
2023/09/15 01:50:53;;;;;;;11.20;4.20;;;9.40;99.90;;;;;;5003979;28;20229;-48
2023/09/15 01:53:19;;;;;;;7.63;4.83;;;9.30;99.90;;;;;;5004450;28;20497;-48
2023/09/15 01:55:46;;;;;;;7.53;4.17;;;9.30;99.90;;;;;;5000626;28;20808;-48
2023/09/15 01:58:12;;;;;;;6.13;5.00;;;9.30;99.90;;;;;;5002571;28;20324;-48
2023/09/15 02:00:38;;;;;;;5.57;4.60;;;9.20;99.90;;;;;;4998807;28;20538;-48
2023/09/15 02:03:04;;;;;;;7.23;4.60;;;9.20;99.90;;;;;;4998425;28;20192;-48
2023/09/15 02:05:30;;;;;;;6.90;5.00;;;9.20;99.90;;;;;;5000543;28;20190;-48
2023/09/15 02:07:56;;;;;;;6.00;4.60;;;9.20;99.90;;;;;;4997642;28;20461;-48
2023/09/15 02:10:22;;;;;;;5.83;4.77;;;9.20;99.90;;;;;;4996745;28;20547;-48
2023/09/15 02:12:48;;;;;;;6.40;4.97;;;9.20;99.90;;;;;;5000150;28;20454;-48
2023/09/15 02:15:14;;;;;;;6.40;4.90;;;9.30;99.90;;;;;;5001215;28;20552;-48
2023/09/15 02:17:40;;;;;;;9.57;5.40;;;9.30;99.90;;;;;;4998944;28;20274;-47
2023/09/15 02:20:11;;;;;;;6.97;4.47;;;9.30;99.90;;;;;;5007938;28;20524;-48
2023/09/15 02:22:41;;;;;;;6.43;4.63;;;9.30;99.90;;;;;;5003399;28;20239;-47
2023/09/15 02:25:07;;;;;;;7.60;4.70;;;9.20;99.90;;;;;;5003853;28;20507;-48
2023/09/15 02:27:32;;;;;;;7.73;4.90;;;9.20;99.90;;;;;;4996651;28;20451;-48
2023/09/15 02:29:58;;;;;;;7.00;5.00;;;9.20;99.90;;;;;;5008645;28;20318;-48
2023/09/15 02:32:23;;;;;;;5.93;4.50;;;9.20;99.90;;;;;;4998669;28;20787;-47
2023/09/15 02:34:49;;;;;;;6.67;4.40;;;9.20;99.90;;;;;;5001141;28;20305;-48
2023/09/15 02:37:15;;;;;;;9.83;4.77;;;9.20;99.90;;;;;;4997685;28;20269;-47
2023/09/15 02:39:40;;;;;;;7.40;4.83;;;9.20;99.90;;;;;;5000024;28;20192;-47
2023/09/15 02:42:06;;;;;;;9.80;4.63;;;9.20;99.90;;;;;;4997365;28;20296;-48
2023/09/15 02:44:32;;;;;;;5.57;4.20;;;9.20;99.90;;;;;;4999830;28;20200;-48
2023/09/15 02:46:58;;;;;;;10.47;4.90;;;9.20;99.90;;;;;;4997448;28;20195;-47
2023/09/15 02:49:23;;;;;;;4.50;4.10;;;9.10;99.90;;;;;;5002402;28;20433;-48
2023/09/15 02:51:49;;;;;;;4.70;4.30;;;9.00;99.90;;;;;;5002600;28;20190;-47
2023/09/15 02:54:14;;;;;;;4.73;4.10;;;9.00;99.90;;;;;;4998531;28;20247;-48
2023/09/15 02:56:40;;;;;;;5.87;4.50;;;8.90;99.90;;;;;;5001600;28;20249;-47
2023/09/15 02:59:06;;;;;;;6.37;4.50;;;8.90;99.90;;;;;;5000205;28;20193;-48
2023/09/15 03:01:31;;;;;;;4.77;4.27;;;8.80;99.90;;;;;;4996610;28;20733;-48
2023/09/15 03:03:57;;;;;;;4.80;4.30;;;8.70;99.90;;;;;;5003571;28;20193;-48
2023/09/15 03:06:22;;;;;;;7.43;4.70;;;8.70;99.90;;;;;;5001627;28;20591;-47
2023/09/15 03:08:48;;;;;;;7.77;5.40;;;8.70;99.90;;;;;;5004557;28;20274;-47
2023/09/15 03:11:17;;;;;;;5.40;4.33;;;8.70;99.90;;;;;;4996965;28;20652;-48
2023/09/15 03:13:42;;;;;;;7.57;4.80;;;8.70;99.90;;;;;;4996404;28;20211;-48
2023/09/15 03:16:09;;;;;;;11.23;4.80;;;8.70;99.90;;;;;;5003230;28;20528;-47
2023/09/15 03:18:36;;;;;;;4.53;3.87;;;8.70;99.90;;;;;;4998245;28;20256;-47
2023/09/15 03:21:02;;;;;;;6.67;4.60;;;8.70;99.90;;;;;;5003912;28;20455;-47
2023/09/15 03:23:28;;;;;;;8.37;4.73;;;8.70;99.90;;;;;;4997154;28;20513;-47
2023/09/15 03:26:04;;;;;;;5.33;4.00;;;8.70;99.90;;;;;;4996903;28;20933;-47
2023/09/15 03:28:35;;;;;;;4.80;4.27;;;8.60;99.90;;;;;;5000085;28;20196;-47
2023/09/15 03:31:03;;;;;;;8.53;4.47;;;8.70;99.90;;;;;;4996540;28;20442;-47
2023/09/15 03:33:30;;;;;;;5.90;4.40;;;8.70;99.90;;;;;;4996875;28;20480;-47
2023/09/15 03:35:59;;;;;;;5.80;4.10;;;8.70;99.90;;;;;;4996335;28;20473;-47
2023/09/15 03:38:24;;;;;;;6.93;4.30;;;8.70;99.90;;;;;;4999166;28;20533;-47
2023/09/15 03:40:50;;;;;;;5.70;4.33;;;8.70;99.90;;;;;;5003207;28;21004;-47
2023/09/15 03:43:15;;;;;;;6.07;4.43;;;8.70;99.90;;;;;;4996921;28;20814;-47
2023/09/15 03:45:44;;;;;;;5.23;4.00;;;8.70;99.90;;;;;;5002735;28;20655;-47
2023/09/15 03:48:09;;;;;;;6.20;4.10;;;8.70;99.90;;;;;;5006095;28;20196;-47
2023/09/15 03:50:35;;;;;;;4.60;3.43;;;8.60;99.90;;;;;;5001865;28;20493;-48
2023/09/15 03:53:00;;;;;;;8.73;4.40;;;8.60;99.90;;;;;;5000950;28;20208;-47
2023/09/15 03:55:26;;;;;;;4.83;4.33;;;8.70;99.90;;;;;;4998006;28;20210;-47
2023/09/15 03:57:52;;;;;;;5.20;3.80;;;8.70;99.90;;;;;;5000564;28;20241;-47
2023/09/15 04:00:19;;;;;;;11.07;4.70;;;8.70;99.90;;;;;;4999088;28;20610;-48
2023/09/15 04:02:45;;;;;;;5.77;3.77;;;8.70;99.90;;;;;;4998337;28;20247;-47
2023/09/15 04:05:10;;;;;;;6.33;4.17;;;8.70;99.90;;;;;;5004602;28;20456;-47
2023/09/15 04:07:40;;;;;;;4.47;3.60;;;8.70;99.90;;;;;;5004630;28;20274;-47
2023/09/15 04:10:07;;;;;;;7.73;4.00;;;8.60;99.90;;;;;;5000550;28;20644;-47
2023/09/15 04:12:34;;;;;;;5.37;3.77;;;8.60;99.90;;;;;;5004015;28;20450;-48
2023/09/15 04:14:59;;;;;;;4.50;3.50;;;8.60;99.90;;;;;;5005160;28;20826;-48
2023/09/15 04:17:25;;;;;;;6.47;3.70;;;8.60;99.90;;;;;;5003337;28;20926;-47
2023/09/15 04:19:51;;;;;;;5.93;3.97;;;8.60;99.90;;;;;;5009397;28;20280;-47
2023/09/15 04:22:16;;;;;;;7.27;4.40;;;8.60;99.90;;;;;;5004374;28;20247;-51
2023/09/15 04:24:42;;;;;;;4.70;3.57;;;8.60;99.90;;;;;;4998949;28;20190;-48
2023/09/15 04:27:07;;;;;;;4.53;3.77;;;8.60;99.90;;;;;;5003254;28;20193;-48
2023/09/15 04:29:33;;;;;;;5.63;3.90;;;8.60;99.90;;;;;;5000465;28;20206;-49
2023/09/15 04:31:59;;;;;;;5.40;3.93;;;8.60;99.90;;;;;;5003155;28;20198;-48
2023/09/15 04:34:25;;;;;;;4.17;3.67;;;8.60;99.90;;;;;;4998763;28;20210;-47
2023/09/15 04:36:50;;;;;;;5.20;4.40;;;8.60;99.90;;;;;;5004885;28;20660;-47
2023/09/15 04:39:16;;;;;;;10.20;4.07;;;8.70;99.90;;;;;;5002166;28;20579;-48
2023/09/15 04:41:42;;;;;;;4.30;3.90;;;8.70;99.90;;;;;;5002471;28;20288;-47
2023/09/15 04:44:08;;;;;;;10.13;4.50;;;8.70;99.90;;;;;;5000796;28;20200;-47
2023/09/15 04:46:33;;;;;;;6.93;4.73;;;8.80;99.90;;;;;;5003096;28;20701;-48
2023/09/15 04:48:59;;;;;;;7.03;4.50;;;8.80;99.90;;;;;;4999264;28;20588;-48
2023/09/15 04:51:25;;;;;;;7.40;4.20;;;8.90;99.90;;;;;;4999623;28;20199;-48
2023/09/15 04:53:50;;;;;;;6.77;4.73;;;8.90;99.90;;;;;;4998403;28;20251;-47
2023/09/15 04:56:16;;;;;;;4.97;4.10;;;9.00;99.90;;;;;;5000930;28;20212;-48
2023/09/15 04:58:45;;;;;;;6.40;4.47;;;9.10;99.90;;;;;;5001282;28;20237;-48
2023/09/15 05:01:13;;;;;;;5.50;4.10;;;9.20;99.90;;;;;;5003124;28;20191;-47
2023/09/15 05:03:39;;;;;;;8.60;4.93;;;9.20;99.90;;;;;;5008179;28;20451;-48
2023/09/15 05:06:05;;;;;;;11.73;5.33;;;9.30;99.90;;;;;;4998494;28;20445;-48
2023/09/15 05:08:31;;;;;;;13.67;5.80;;;9.30;99.90;;;;;;4999741;28;20212;-47
2023/09/15 05:10:56;;;;;;;5.77;5.03;;;9.40;99.90;;;;;;5004256;28;20435;-48
2023/09/15 05:13:22;;;;;;;7.13;5.27;;;9.50;99.90;;;;;;5001700;28;20210;-48
2023/09/15 05:15:47;;;;;;;6.93;5.03;;;9.50;99.90;;;;;;5004628;28;20231;-48
2023/09/15 05:18:13;;;;;;;9.50;5.20;;;9.60;99.90;;;;;;5001083;28;20665;-47
2023/09/15 05:20:38;;;;;;;8.10;5.00;;;9.70;99.90;;;;;;4999011;28;20191;-49
2023/09/15 05:23:04;;;;;;;10.77;6.53;;;9.70;99.90;;;;;;4999361;28;20713;-48
2023/09/15 05:25:29;;;;;;;6.37;5.00;;;9.80;99.90;;;;;;4998279;28;20211;-48
2023/09/15 05:27:55;;;;;;;10.83;5.40;;;9.90;99.90;;;;;;5000811;28;20318;-48
2023/09/15 05:30:21;;;;;;;7.77;5.20;;;9.90;99.90;;;;;;5001172;28;20199;-48
2023/09/15 05:32:46;;;;;;;8.00;5.83;;;10.00;99.90;;;;;;5004146;28;20420;-48
2023/09/15 05:35:12;;;;;;;6.97;5.13;;;10.10;99.90;;;;;;4999899;28;20269;-48
2023/09/15 05:37:37;;;;;;;12.27;5.63;;;10.10;99.90;;;;;;5001036;28;20194;-48
2023/09/15 05:40:03;;;;;;;13.73;5.67;;;10.20;99.90;;;;;;5006129;28;20192;-48
2023/09/15 05:42:29;;;;;;;9.27;5.60;;;10.30;99.90;;;;;;5005373;28;20187;-47
2023/09/15 05:44:54;;;;;;;8.30;5.73;;;10.40;99.90;;;;;;5003594;28;20215;-48
2023/09/15 05:47:23;;;;;;;9.53;5.83;;;10.50;99.90;;;;;;5004842;28;20555;-48
2023/09/15 05:49:48;;;;;;;10.83;5.80;;;10.60;99.90;;;;;;4998087;28;20208;-48
2023/09/15 05:52:14;;;;;;;11.57;6.03;;;10.70;99.90;;;;;;4999512;28;20970;-47
2023/09/15 05:54:39;;;;;;;12.30;5.67;;;10.80;99.90;;;;;;5000886;28;20313;-51
2023/09/15 05:57:05;;;;;;;12.90;6.60;;;10.80;99.90;;;;;;5003246;28;20292;-48
2023/09/15 05:59:31;;;;;;;7.43;5.40;;;10.80;99.90;;;;;;5001048;28;20193;-50
2023/09/15 06:01:56;;;;;;;7.00;5.30;;;10.90;99.90;;;;;;5002153;28;20199;-49
2023/09/15 06:04:22;;;;;;;6.23;5.20;;;10.90;99.90;;;;;;5000811;28;20191;-48
2023/09/15 06:06:48;;;;;;;11.17;6.13;;;10.90;99.90;;;;;;4997975;28;20285;-48
2023/09/15 06:09:14;;;;;;;10.77;5.90;;;10.90;99.90;;;;;;5001049;28;20533;-48
2023/09/15 06:11:40;;;;;;;10.33;6.47;;;11.00;99.90;;;;;;5004130;28;20441;-49
2023/09/15 06:14:06;;;;;;;10.17;6.07;;;11.00;99.90;;;;;;5001558;28;20520;-50
2023/09/15 06:16:36;;;;;;;9.27;6.20;;;11.10;99.90;;;;;;5002086;28;20217;-48
2023/09/15 06:19:02;;;;;;;10.13;6.30;;;11.10;99.90;;;;;;4997423;28;20473;-48
2023/09/15 06:21:28;;;;;;;8.57;6.00;;;11.20;99.90;;;;;;5006995;28;20458;-48
2023/09/15 06:23:53;;;;;;;11.80;7.30;;;11.30;99.90;;;;;;5001546;28;20548;-49
2023/09/15 06:26:19;;;;;;;10.07;5.90;;;11.40;99.90;;;;;;5013275;28;20948;-51
2023/09/15 06:28:45;;;;;;;12.20;6.30;;;11.50;99.90;;;;;;5013469;28;20182;-48
2023/09/15 06:31:10;;;;;;;14.93;6.60;;;11.60;99.90;;;;;;4995135;28;20187;-48
2023/09/15 06:33:36;;;;;;;10.27;5.53;;;11.80;99.90;;;;;;5008692;28;20205;-49
2023/09/15 06:36:02;;;;;;;7.10;5.57;;;12.00;99.90;;;;;;5013784;28;20194;-49
2023/09/15 06:38:27;;;;;;;8.60;5.87;;;12.20;99.90;;;;;;5014322;28;20186;-49
2023/09/15 06:40:53;;;;;;;11.97;6.70;;;12.30;99.90;;;;;;5015089;28;20194;-49
2023/09/15 06:43:19;;;;;;;13.87;6.57;;;12.50;99.90;;;;;;5014611;28;20195;-49
2023/09/15 06:45:44;;;;;;;10.40;5.70;;;12.70;99.90;;;;;;5013922;28;20184;-49
2023/09/15 06:48:10;;;;;;;13.53;6.10;;;12.80;99.90;;;;;;5013505;28;20666;-49
2023/09/15 06:50:36;;;;;;;12.13;6.43;;;13.00;99.90;;;;;;5013221;28;20183;-49
2023/09/15 06:53:01;;;;;;;11.10;6.27;;;13.20;93.80;;;;;;5013282;28;20625;-49
2023/09/15 06:55:27;;;;;;;11.10;6.20;;;13.40;91.50;;;;;;5013446;28;20602;-50
2023/09/15 06:57:52;;;;;;;9.40;5.57;;;13.70;23.00;;;;;;5012637;28;20651;-50
2023/09/15 07:00:19;;;;;;;9.33;5.77;;;14.10;1.00;;;;;;5012106;28;20199;-49
2023/09/15 07:02:44;;;;;;;8.90;5.40;;;14.50;99.90;;;;;;5013803;28;20652;-50
2023/09/15 07:05:11;;;;;;;8.90;5.10;;;14.90;1.00;;;;;;5014708;28;20451;-50
2023/09/15 07:07:36;;;;;;;6.03;4.30;;;15.40;1.00;;;;;;5013056;28;20192;-50
2023/09/15 07:10:02;;;;;;;8.23;5.17;;;15.70;99.90;;;;;;5012903;28;20485;-51
2023/09/15 07:12:28;;;;;;;7.43;4.60;;;16.10;99.90;;;;;;5014229;28;20286;-51
2023/09/15 07:14:53;;;;;;;9.17;4.40;;;16.50;99.90;;;;;;5013991;28;20537;-51
2023/09/15 07:17:20;;;;;;;9.10;4.60;;;16.90;23.60;;;;;;5013129;28;20222;-50
2023/09/15 07:19:46;;;;;;;10.60;4.70;;;17.20;1.00;;;;;;5006575;28;20219;-50
2023/09/15 07:22:12;;;;;;;10.43;4.63;;;17.60;1.00;;;;;;5013999;28;20474;-50
2023/09/15 07:24:41;;;;;;;6.37;4.17;;;17.90;1.00;;;;;;5002260;28;20498;-49
2023/09/15 07:27:09;;;;;;;10.63;4.50;;;18.30;1.00;;;;;;4996556;28;20248;-51
2023/09/15 07:29:36;;;;;;;5.77;4.30;;;18.70;1.00;;;;;;5002963;28;20505;-50
2023/09/15 07:32:02;;;;;;;7.77;4.50;;;19.10;1.00;;;;;;5005602;28;20918;-51
2023/09/15 07:34:27;;;;;;;7.37;3.67;;;19.40;1.00;;;;;;5004588;28;21244;-51
2023/09/15 07:36:53;;;;;;;7.77;4.40;;;19.80;1.00;;;;;;5003708;28;20466;-50
2023/09/15 07:39:19;;;;;;;9.80;5.00;;;20.10;1.00;;;;;;5006146;28;20191;-51
2023/09/15 07:41:45;;;;;;;8.60;3.90;;;20.30;1.00;;;;;;5008904;28;20191;-51
2023/09/15 07:44:12;;;;;;;12.50;4.00;;;20.50;1.00;;;;;;5008133;28;20246;-50
2023/09/15 07:46:39;;;;;;;10.47;3.63;;;20.70;1.00;;;;;;5001878;28;20953;-51
2023/09/15 07:49:07;;;;;;;7.93;4.47;;;20.80;1.00;;;;;;5001677;28;20489;-52
2023/09/15 07:51:33;;;;;;;7.50;4.20;;;21.00;1.00;;;;;;5005134;28;20459;-52
2023/09/15 07:53:58;;;;;;;7.33;3.80;;;21.20;1.00;;;;;;5003003;28;20967;-51
2023/09/15 07:56:24;;;;;;;10.73;4.10;;;21.40;1.00;;;;;;5006478;28;20293;-53
2023/09/15 07:58:50;;;;;;;6.00;3.33;;;21.70;1.00;;;;;;5003258;28;20188;-50
2023/09/15 08:01:16;;;;;;;5.43;3.37;;;22.00;1.00;;;;;;5007765;28;20180;-51
2023/09/15 08:03:41;;;;;;;4.23;3.40;;;22.20;1.00;;;;;;5003488;28;20189;-51
2023/09/15 08:06:08;;;;;;;4.60;3.30;;;22.40;1.00;;;;;;5002478;28;20219;-52
2023/09/15 08:08:34;;;;;;;7.97;3.87;;;22.60;1.00;;;;;;5003080;28;20185;-51
2023/09/15 08:11:00;;;;;;;8.13;3.20;;;22.80;1.00;;;;;;5003019;28;20451;-51
2023/09/15 08:13:26;;;;;;;5.33;3.60;;;22.90;1.00;;;;;;5005277;28;21094;-53
2023/09/15 08:15:52;;;;;;;6.80;3.27;;;23.10;1.00;;;;;;5004768;28;20443;-53
2023/09/15 08:18:18;;;;;;;7.57;3.50;;;23.20;1.00;;;;;;5003242;28;20230;-54
2023/09/15 08:20:44;;;;;;;11.63;3.50;;;23.40;1.00;;;;;;5008753;28;20638;-50
2023/09/15 08:23:09;;;;;;;7.00;3.13;;;23.50;1.00;;;;;;5005904;28;20502;-52
2023/09/15 08:25:35;;;;;;;9.87;3.17;;;23.40;1.00;;;;;;5003740;28;20201;-53
2023/09/15 08:28:02;;;;;;;3.87;2.93;;;23.40;1.00;;;;;;5007293;28;20193;-53
2023/09/15 08:30:29;;;;;;;7.07;3.07;;;23.70;1.00;;;;;;5013052;28;20196;-50
2023/09/15 08:32:55;;;;;;;6.27;2.93;;;23.80;1.00;;;;;;5006717;28;20448;-51
2023/09/15 08:35:21;;;;;;;6.40;3.03;;;23.80;1.00;;;;;;5006189;28;20483;-51
2023/09/15 08:37:48;;;;;;;5.40;3.10;;;23.90;1.00;;;;;;5005896;28;20180;-51
2023/09/15 08:40:14;;;;;;;6.33;3.57;;;24.00;1.00;;;;;;5009254;28;20875;-52
2023/09/15 08:42:39;;;;;;;7.50;2.90;;;23.90;1.00;;;;;;5003770;28;20504;-50
2023/09/15 08:45:05;;;;;;;5.77;2.80;;;23.80;1.00;;;;;;5006060;28;20184;-51
2023/09/15 08:47:35;;;;;;;4.50;3.60;;;23.80;1.00;;;;;;5005374;28;20200;-52
2023/09/15 08:50:03;;;;;;;3.83;2.80;;;23.90;1.00;;;;;;5000178;28;20944;-51
2023/09/15 08:52:30;;;;;;;3.80;2.90;;;24.00;1.00;;;;;;4999685;28;20466;-52
2023/09/15 08:54:57;;;;;;;8.40;3.47;;;24.30;1.00;;;;;;4999544;28;20487;-51
2023/09/15 08:57:24;;;;;;;4.40;2.87;;;24.50;1.00;;;;;;4999438;28;20802;-53
2023/09/15 08:59:51;;;;;;;8.20;2.80;;;24.70;1.00;;;;;;4998212;28;20520;-51
2023/09/15 09:02:17;;;;;;;10.27;4.70;;;24.80;1.00;;;;;;5003540;28;20448;-52
2023/09/15 09:04:42;;;;;;;18.30;12.93;;;24.90;1.00;;;;;;4998790;28;20441;-52
2023/09/15 09:07:08;;;;;;;7.50;3.80;;;24.90;1.00;;;;;;5000961;28;20251;-50
2023/09/15 09:09:34;;;;;;;6.23;3.23;;;25.00;1.00;;;;;;5007545;28;20199;-51
2023/09/15 09:12:00;;;;;;;7.20;2.93;;;24.60;1.00;;;;;;5002318;28;20523;-52
2023/09/15 09:14:26;;;;;;;6.63;3.30;;;24.40;1.00;;;;;;5001581;28;20506;-52
2023/09/15 09:16:52;;;;;;;8.90;3.37;;;24.20;1.00;;;;;;5002215;28;20443;-52
2023/09/15 09:19:18;;;;;;;8.70;2.97;;;23.70;1.00;;;;;;5000372;28;20193;-52
2023/09/15 09:21:44;;;;;;;7.03;2.70;;;23.30;1.00;;;;;;4998729;28;20439;-52
2023/09/15 09:24:10;;;;;;;3.90;2.80;;;22.90;1.00;;;;;;4999237;28;20235;-50
2023/09/15 09:26:37;;;;;;;5.50;3.17;;;22.50;1.00;;;;;;5000559;28;20446;-51
2023/09/15 09:29:03;;;;;;;7.23;3.23;;;22.10;1.00;;;;;;4998708;28;20494;-50
2023/09/15 09:31:30;;;;;;;5.90;3.20;;;21.80;1.00;;;;;;5004967;28;20812;-54
2023/09/15 09:33:57;;;;;;;5.23;3.40;;;21.30;1.00;;;;;;5007022;28;20487;-50
2023/09/15 09:36:23;;;;;;;4.13;3.00;;;21.00;1.00;;;;;;5002870;28;20448;-52
2023/09/15 09:38:51;;;;;;;5.03;3.60;;;20.80;1.00;;;;;;5005010;28;20442;-51
2023/09/15 09:41:21;;;;;;;10.23;3.63;;;20.70;1.00;;;;;;4999764;28;20443;-51
2023/09/15 09:43:48;;;;;;;11.13;3.93;;;20.60;1.00;;;;;;5001910;28;20521;-50
2023/09/15 09:46:17;;;;;;;6.83;3.10;;;20.60;1.00;;;;;;4998328;28;20439;-50
2023/09/15 09:48:45;;;;;;;4.37;3.10;;;20.60;1.00;;;;;;5002372;28;20443;-50
2023/09/15 09:51:13;;;;;;;13.00;3.50;;;20.60;1.00;;;;;;4999607;28;20440;-51
2023/09/15 09:53:39;;;;;;;7.93;3.03;;;20.50;1.00;;;;;;5004748;28;20482;-50
2023/09/15 09:56:06;;;;;;;6.63;2.83;;;20.50;1.00;;;;;;5002056;28;20534;-52
2023/09/15 09:58:33;;;;;;;7.40;3.30;;;20.60;1.00;;;;;;4999219;28;20202;-52
2023/09/15 10:00:59;;;;;;;6.60;3.17;;;20.60;1.00;;;;;;5002104;28;20938;-53
2023/09/15 10:03:25;;;;;;;4.30;3.00;;;20.60;1.00;;;;;;4999036;28;20444;-51
2023/09/15 10:05:52;;;;;;;4.87;2.90;;;20.60;1.00;;;;;;4997595;28;20181;-53
2023/09/15 10:08:18;;;;;;;9.30;3.10;;;20.70;1.00;;;;;;4997829;28;20196;-52
2023/09/15 10:10:46;;;;;;;7.27;2.93;;;20.80;1.00;;;;;;4998249;28;20932;-53
2023/09/15 10:13:14;;;;;;;7.00;3.20;;;20.90;1.00;;;;;;5000746;28;20487;-51
2023/09/15 10:15:44;;;;;;;6.73;2.93;;;21.10;1.00;;;;;;5001371;28;20964;-52
2023/09/15 10:18:14;;;;;;;5.10;3.07;;;21.30;1.00;;;;;;5001701;28;20800;-54
2023/09/15 10:20:45;;;;;;;4.70;3.70;;;21.60;1.00;;;;;;5000630;28;20447;-53
2023/09/15 10:23:12;;;;;;;10.50;4.20;;;21.80;1.00;;;;;;5001662;28;20479;-54
2023/09/15 10:25:42;;;;;;;7.97;3.60;;;22.00;1.00;;;;;;5000226;28;20435;-53
2023/09/15 10:28:09;;;;;;;4.47;3.10;;;22.30;1.00;;;;;;5000943;28;20525;-53
2023/09/15 10:30:36;;;;;;;5.70;3.10;;;22.80;1.00;;;;;;5004553;28;20836;-53
2023/09/15 10:33:03;;;;;;;5.00;2.77;;;23.20;1.00;;;;;;5002821;28;21008;-54
2023/09/15 10:35:28;;;;;;;6.53;3.30;;;23.70;1.00;;;;;;4999387;28;20470;-53
2023/09/15 10:38:02;;;;;;;4.67;3.43;;;23.90;1.00;;;;;;4999618;28;20450;-52
2023/09/15 10:40:29;;;;;;;3.50;2.70;;;24.30;1.00;;;;;;5000263;28;20200;-51
2023/09/15 10:42:55;;;;;;;8.57;3.50;;;24.90;1.00;;;;;;4998307;28;20989;-51
2023/09/15 10:45:21;;;;;;;3.47;2.80;;;25.30;1.00;;;;;;4996512;28;20455;-50
2023/09/15 10:47:58;;;;;;;8.00;3.60;;;25.90;1.00;;;;;;4997235;28;20443;-51
2023/09/15 10:50:31;;;;;;;5.47;3.23;;;26.60;1.00;;;;;;5000703;28;20196;-52
2023/09/15 10:53:07;;;;;;;4.60;3.10;;;27.10;1.00;;;;;;4998159;28;20510;-51
2023/09/15 10:55:33;;;;;;;4.60;3.00;;;27.70;1.00;;;;;;4997224;28;20455;-51
2023/09/15 10:57:59;;;;;;;4.37;3.00;;;28.20;1.00;;;;;;5000491;28;20799;-52
2023/09/15 11:00:25;;;;;;;4.30;3.10;;;28.70;1.00;;;;;;5001964;28;20199;-52
2023/09/15 11:02:52;;;;;;;4.57;2.97;;;29.00;1.00;;;;;;5000214;28;20455;-52
2023/09/15 11:05:18;;;;;;;4.90;3.37;;;29.20;1.00;;;;;;4998623;28;20197;-52
2023/09/15 11:07:45;;;;;;;6.27;3.07;;;29.30;1.00;;;;;;5001332;28;21006;-52
2023/09/15 11:10:11;;;;;;;7.37;4.00;;;29.40;1.00;;;;;;5000119;28;20195;-52
2023/09/15 11:12:36;;;;;;;4.03;2.80;;;29.30;1.00;;;;;;5001985;28;20431;-52
2023/09/15 11:15:02;;;;;;;7.53;3.30;;;29.40;1.00;;;;;;4998850;28;20354;-52
2023/09/15 11:17:29;;;;;;;6.57;3.47;;;29.40;1.00;;;;;;4996544;28;20193;-52
2023/09/15 11:19:57;;;;;;;7.40;3.00;;;29.40;1.00;;;;;;4996173;28;20180;-52
2023/09/15 11:22:23;;;;;;;10.90;3.40;;;30.00;1.00;;;;;;4998295;28;20474;-52
2023/09/15 11:24:55;;;;;;;5.13;3.20;;;30.40;1.00;;;;;;4999348;28;20456;-52
2023/09/15 11:27:21;;;;;;;7.40;2.67;;;30.60;1.00;;;;;;4996016;28;20816;-53
2023/09/15 11:29:46;;;;;;;5.67;3.33;;;30.80;99.90;;;;;;4996581;28;20443;-52
2023/09/15 11:32:12;;;;;;;6.77;2.63;;;31.20;99.90;;;;;;4998605;28;20180;-53
2023/09/15 11:34:38;;;;;;;5.40;3.10;;;31.40;99.90;;;;;;4997273;28;20700;-52
2023/09/15 11:37:04;;;;;;;4.47;3.23;;;31.30;99.90;;;;;;4996593;28;20192;-52
2023/09/15 11:39:29;;;;;;;3.13;2.80;;;31.30;99.90;;;;;;4998085;28;20181;-52
2023/09/15 11:41:55;;;;;;;3.00;2.43;;;31.30;99.90;;;;;;4995926;28;20216;-52
2023/09/15 11:44:24;;;;;;;9.13;2.87;;;31.20;99.90;;;;;;4996032;28;20180;-52
2023/09/15 11:46:50;;;;;;;5.60;3.17;;;31.00;99.90;;;;;;4996508;28;20184;-52
2023/09/15 11:49:16;;;;;;;7.40;2.70;;;30.90;99.90;;;;;;4995941;28;20456;-52
2023/09/15 11:51:43;;;;;;;3.07;2.67;;;30.90;99.90;;;;;;4995887;28;20522;-52
2023/09/15 11:54:09;;;;;;;3.97;3.10;;;31.10;99.90;;;;;;4996184;28;20484;-52
2023/09/15 11:56:36;;;;;;;7.73;3.17;;;31.10;99.90;;;;;;4999798;28;20459;-51
2023/09/15 11:59:01;;;;;;;6.23;3.40;;;31.20;99.90;;;;;;4996092;28;20472;-52
2023/09/15 12:01:28;;;;;;;6.17;2.57;;;31.30;99.90;;;;;;4998409;28;20479;-52
2023/09/15 12:03:54;;;;;;;4.90;2.93;;;31.40;99.90;;;;;;4996681;28;20664;-52
2023/09/15 12:06:20;;;;;;;5.00;2.70;;;31.60;99.90;;;;;;4995465;28;20438;-52
2023/09/15 12:08:47;;;;;;;3.70;2.23;;;31.50;99.90;;;;;;4999478;28;20200;-51
2023/09/15 12:11:14;;;;;;;5.00;3.00;;;31.20;99.90;;;;;;4998968;28;20526;-51
2023/09/15 12:13:40;;;;;;;3.73;2.90;;;31.20;99.90;;;;;;5004587;28;20483;-51
2023/09/15 12:16:07;;;;;;;3.63;2.80;;;31.20;99.90;;;;;;4999321;28;20474;-51
2023/09/15 12:18:36;;;;;;;3.70;2.70;;;31.00;99.90;;;;;;5000147;28;20574;-53
2023/09/15 12:21:08;;;;;;;2.80;2.37;;;30.70;99.90;;;;;;5001005;28;20923;-53
2023/09/15 12:23:34;;;;;;;2.50;2.30;;;30.60;99.90;;;;;;5005800;28;20556;-50
2023/09/15 12:26:00;;;;;;;6.73;2.70;;;30.80;99.90;;;;;;5001017;28;20447;-52
2023/09/15 12:28:25;;;;;;;7.60;3.00;;;31.20;99.90;;;;;;5001366;28;20531;-51
2023/09/15 12:30:51;;;;;;;7.50;2.87;;;31.20;99.90;;;;;;5003523;28;20493;-51
2023/09/15 12:33:18;;;;;;;3.27;2.60;;;31.30;99.90;;;;;;5000851;28;20188;-51
2023/09/15 12:35:48;;;;;;;3.70;2.63;;;31.20;99.90;;;;;;5002125;28;20607;-51
2023/09/15 12:38:17;;;;;;;3.17;2.77;;;31.30;99.90;;;;;;5000041;28;20479;-51
2023/09/15 12:40:47;;;;;;;7.60;3.33;;;31.10;99.90;;;;;;4999302;28;20771;-51
2023/09/15 12:43:13;;;;;;;2.93;2.50;;;30.80;99.90;;;;;;5004324;28;20439;-51
2023/09/15 12:45:39;;;;;;;4.97;2.83;;;30.70;99.90;;;;;;5002374;28;20470;-52
2023/09/15 12:48:04;;;;;;;3.50;2.80;;;30.60;99.90;;;;;;4999070;28;20483;-52
2023/09/15 12:50:31;;;;;;;6.93;2.70;;;30.30;99.90;;;;;;4999005;28;20185;-51